Time;durP1;ratioP1;P1;durP2;ratioP2;P2;SDS_P1;SDS_P2;PMS_P1;PMS_P2;Temp;Humidity;BMP_temperature;BMP_pressure;BME280_temperature;BME280_humidity;BME280_pressure;Samples;Min_cycle;Max_cycle;Signal;HPM_P1;HPM_P2
2022/06/22 00:02:19;;;;;;;1.53;1.43;;;21.60;81.70;;;;;;6279128;22;20882;-91
2022/06/22 00:04:55;;;;;;;1.83;1.70;;;21.50;81.80;;;;;;6252827;22;20469;-92
2022/06/22 00:07:24;;;;;;;1.93;1.60;;;21.50;81.80;;;;;;6252334;22;20416;-90
2022/06/22 00:10:15;;;;;;;4.33;1.63;;;21.50;81.90;;;;;;6252231;22;20401;-90
2022/06/22 00:12:41;;;;;;;1.67;1.57;;;21.40;81.90;;;;;;6251593;22;20459;-93
2022/06/22 00:15:37;;;;;;;1.80;1.70;;;21.40;82.00;;;;;;6251796;22;20396;-91
2022/06/22 00:18:33;;;;;;;2.80;1.93;;;21.30;82.10;;;;;;6252271;22;20544;-93
2022/06/22 00:21:21;;;;;;;1.90;1.80;;;21.30;82.10;;;;;;6254382;22;20404;-92
2022/06/22 00:23:49;;;;;;;2.00;1.90;;;21.30;82.10;;;;;;6239961;22;20396;-92
2022/06/22 00:26:24;;;;;;;4.40;1.50;;;21.20;82.10;;;;;;6279530;22;20447;-92
2022/06/22 00:28:59;;;;;;;1.83;1.73;;;21.20;82.40;;;;;;6254172;22;20392;-93
2022/06/22 00:31:40;;;;;;;2.10;1.90;;;21.20;82.60;;;;;;6254683;22;20883;-90
2022/06/22 00:34:15;;;;;;;1.70;1.60;;;21.10;82.60;;;;;;6281241;22;20416;-90
2022/06/22 00:36:40;;;;;;;2.33;2.13;;;21.10;82.70;;;;;;6253895;22;20500;-92
2022/06/22 00:39:28;;;;;;;1.67;1.57;;;21.10;82.80;;;;;;6254565;22;20871;-90
2022/06/22 00:42:14;;;;;;;1.70;1.60;;;21.10;83.10;;;;;;6254644;22;20187;-90
2022/06/22 00:44:52;;;;;;;1.83;1.73;;;21.10;83.50;;;;;;6254259;22;20440;-92
2022/06/22 00:47:38;;;;;;;2.20;1.93;;;21.10;83.60;;;;;;6248982;23;20440;-90
2022/06/22 00:50:10;;;;;;;1.70;1.60;;;21.10;83.80;;;;;;6250044;23;20492;-90
2022/06/22 00:52:40;;;;;;;1.43;1.33;;;21.10;83.90;;;;;;6250431;23;20430;-90
2022/06/22 00:55:47;;;;;;;1.73;1.63;;;21.10;84.10;;;;;;6250107;23;20393;-90
2022/06/22 00:58:23;;;;;;;1.97;1.87;;;21.10;84.10;;;;;;6199689;23;20409;-90
2022/06/22 01:00:58;;;;;;;1.70;1.60;;;21.10;84.10;;;;;;6250458;23;20444;-90
2022/06/22 01:03:46;;;;;;;1.87;1.77;;;21.10;84.00;;;;;;6250069;23;20409;-92
2022/06/22 01:06:21;;;;;;;1.70;1.60;;;21.20;84.40;;;;;;6253515;23;20457;-93
2022/06/22 01:08:53;;;;;;;2.33;2.10;;;21.20;84.50;;;;;;6270480;23;20365;-88
2022/06/22 01:14:49;;;;;;;2.23;1.80;;;21.20;84.70;;;;;;6251062;23;20382;-91
2022/06/22 01:17:29;;;;;;;3.20;2.03;;;21.20;84.40;;;;;;6246160;23;20491;-90
2022/06/22 01:20:22;;;;;;;2.70;1.87;;;21.20;84.40;;;;;;6246970;23;20422;-92
2022/06/22 01:22:56;;;;;;;1.60;1.50;;;21.20;84.30;;;;;;6235439;23;20424;-92
2022/06/22 01:25:37;;;;;;;2.90;1.60;;;21.20;84.50;;;;;;6250011;23;20444;-93
2022/06/22 01:28:03;;;;;;;1.87;1.77;;;21.20;84.80;;;;;;6250642;23;20798;-92
2022/06/22 01:30:37;;;;;;;1.70;1.60;;;21.20;84.80;;;;;;6249900;23;20397;-90
2022/06/22 01:33:27;;;;;;;1.67;1.57;;;21.20;84.80;;;;;;6250390;23;20426;-91
2022/06/22 01:36:01;;;;;;;1.70;1.60;;;21.30;84.80;;;;;;6233951;23;20399;-91
2022/06/22 01:38:33;;;;;;;1.87;1.77;;;21.30;84.60;;;;;;6251490;23;20505;-91
2022/06/22 01:41:05;;;;;;;2.30;1.93;;;21.30;84.30;;;;;;6250908;23;20433;-92
2022/06/22 01:43:37;;;;;;;1.80;1.70;;;21.20;84.10;;;;;;6252093;23;20774;-92
2022/06/22 01:46:16;;;;;;;2.07;1.60;;;21.30;84.40;;;;;;6251274;23;20445;-90
2022/06/22 01:48:58;;;;;;;1.80;1.70;;;21.30;84.40;;;;;;6250584;23;20434;-90
2022/06/22 01:51:34;;;;;;;1.80;1.40;;;21.30;84.50;;;;;;6254044;23;20415;-90
2022/06/22 01:54:10;;;;;;;2.63;2.30;;;21.30;84.50;;;;;;6271004;23;20758;-92
2022/06/22 01:56:48;;;;;;;2.90;1.87;;;21.30;84.50;;;;;;6260544;23;20394;-90
2022/06/22 01:59:31;;;;;;;2.83;2.10;;;21.30;84.30;;;;;;6248316;23;20371;-93
2022/06/22 02:02:38;;;;;;;2.63;1.93;;;21.30;84.10;;;;;;6247844;23;20747;-91
2022/06/22 02:05:19;;;;;;;2.10;1.90;;;21.40;84.10;;;;;;6161453;23;20470;-91
2022/06/22 02:08:00;;;;;;;2.00;1.90;;;21.30;84.00;;;;;;6268189;22;20402;-91
2022/06/22 02:10:46;;;;;;;1.60;1.47;;;21.30;84.30;;;;;;6248354;23;20487;-92
2022/06/22 02:13:31;;;;;;;2.00;1.90;;;21.30;84.30;;;;;;6248111;23;20409;-90
2022/06/22 02:16:11;;;;;;;3.30;2.00;;;21.30;84.30;;;;;;6249626;23;20402;-92
2022/06/22 02:18:49;;;;;;;2.40;1.80;;;21.30;84.30;;;;;;6249541;23;20386;-90
2022/06/22 02:21:24;;;;;;;1.53;1.43;;;21.40;84.40;;;;;;6250329;23;20422;-90
2022/06/22 02:24:04;;;;;;;2.10;2.00;;;21.40;84.50;;;;;;6249162;23;20384;-93
2022/06/22 02:26:54;;;;;;;1.90;1.80;;;21.40;84.50;;;;;;6248915;23;20461;-90
2022/06/22 02:29:26;;;;;;;2.03;1.57;;;21.40;84.60;;;;;;6249737;23;20440;-90
2022/06/22 02:31:55;;;;;;;2.47;1.83;;;21.40;84.50;;;;;;6248871;23;20898;-91
2022/06/22 02:34:21;;;;;;;2.50;1.73;;;21.40;84.40;;;;;;6252077;23;20828;-92
2022/06/22 02:36:51;;;;;;;3.07;1.87;;;21.40;84.40;;;;;;6250687;23;20401;-92
2022/06/22 02:39:18;;;;;;;2.00;1.90;;;21.30;84.50;;;;;;6248916;23;20379;-93
2022/06/22 02:44:34;;;;;;;2.10;2.00;;;21.30;84.30;;;;;;6250471;23;20453;-91
2022/06/22 02:47:22;;;;;;;1.80;1.70;;;21.30;84.40;;;;;;6249447;23;20434;-90
2022/06/22 02:49:56;;;;;;;2.10;1.90;;;21.30;84.40;;;;;;6251161;23;20417;-92
2022/06/22 02:52:28;;;;;;;2.60;1.93;;;21.30;84.70;;;;;;6250042;23;20413;-90
2022/06/22 02:54:59;;;;;;;2.70;2.50;;;21.20;84.70;;;;;;6257105;23;20473;-92
2022/06/22 02:57:37;;;;;;;3.50;2.00;;;21.20;84.80;;;;;;6251409;23;20402;-91
2022/06/22 03:00:04;;;;;;;7.37;1.93;;;21.20;85.10;;;;;;6253077;23;20494;-91
2022/06/22 03:02:30;;;;;;;2.40;1.97;;;21.20;85.10;;;;;;6248257;23;20452;-90
2022/06/22 03:04:58;;;;;;;2.77;1.80;;;21.10;85.10;;;;;;6247330;23;20761;-90
2022/06/22 03:07:25;;;;;;;2.20;1.90;;;21.10;85.90;;;;;;6247498;23;20180;-92
2022/06/22 03:09:51;;;;;;;2.43;1.60;;;21.10;85.40;;;;;;6247501;23;20410;-90
2022/06/22 03:12:18;;;;;;;2.00;1.90;;;21.10;85.50;;;;;;6247514;23;20484;-90
2022/06/22 03:14:43;;;;;;;2.03;1.93;;;21.10;85.70;;;;;;6247299;23;20481;-92
2022/06/22 03:17:18;;;;;;;2.20;2.00;;;21.10;85.90;;;;;;6247238;23;20410;-92
2022/06/22 03:19:53;;;;;;;2.77;2.50;;;21.10;86.00;;;;;;6247207;23;20160;-92
2022/06/22 03:22:36;;;;;;;2.90;2.60;;;21.10;85.90;;;;;;6247474;23;20449;-92
2022/06/22 03:25:26;;;;;;;2.27;1.93;;;21.10;85.70;;;;;;6247502;23;20450;-90
2022/06/22 03:28:05;;;;;;;2.13;1.93;;;21.10;85.60;;;;;;6248402;23;20416;-92
2022/06/22 03:30:45;;;;;;;5.87;2.10;;;21.10;86.60;;;;;;6249725;23;20516;-90
2022/06/22 03:33:16;;;;;;;2.70;1.70;;;21.10;86.00;;;;;;6248609;23;20477;-92
2022/06/22 03:35:45;;;;;;;3.13;2.17;;;21.20;86.10;;;;;;6250364;23;20774;-93
2022/06/22 03:38:32;;;;;;;1.70;1.60;;;21.20;86.10;;;;;;6251901;23;20461;-92
2022/06/22 03:41:03;;;;;;;2.27;1.90;;;21.20;86.30;;;;;;6253105;23;20401;-91
2022/06/22 03:43:38;;;;;;;1.70;1.60;;;21.20;86.20;;;;;;6251978;23;20397;-90
2022/06/22 03:46:29;;;;;;;1.90;1.80;;;21.20;86.30;;;;;;6250929;23;20776;-93
2022/06/22 03:49:15;;;;;;;3.13;1.90;;;21.10;86.40;;;;;;6262397;23;20403;-93
2022/06/22 03:51:43;;;;;;;2.20;2.07;;;21.10;86.20;;;;;;6245922;23;20463;-90
2022/06/22 03:54:15;;;;;;;1.93;1.63;;;21.10;86.40;;;;;;6267418;22;20414;-91
2022/06/22 03:56:45;;;;;;;2.57;2.20;;;21.10;86.70;;;;;;6248349;23;20899;-90
2022/06/22 03:59:12;;;;;;;2.60;2.17;;;21.10;86.70;;;;;;6247994;23;20397;-92
2022/06/22 04:01:39;;;;;;;2.50;2.27;;;21.10;86.60;;;;;;6248646;22;20387;-90
2022/06/22 04:04:07;;;;;;;3.40;1.90;;;21.10;86.40;;;;;;6245676;23;20462;-90
2022/06/22 04:06:40;;;;;;;3.03;1.63;;;21.10;86.00;;;;;;6247041;23;20773;-92
2022/06/22 04:09:21;;;;;;;2.30;2.10;;;21.00;86.30;;;;;;6248428;23;20383;-92
2022/06/22 04:12:02;;;;;;;2.40;2.20;;;21.00;87.40;;;;;;6249114;23;20509;-92
2022/06/22 04:14:57;;;;;;;2.23;2.03;;;21.10;86.80;;;;;;6249395;23;20370;-93
2022/06/22 04:17:25;;;;;;;1.80;1.70;;;21.10;86.60;;;;;;6247389;23;20405;-91
2022/06/22 04:20:02;;;;;;;3.60;2.33;;;21.10;86.50;;;;;;6248928;23;20395;-93
2022/06/22 04:22:31;;;;;;;2.90;1.90;;;21.20;86.50;;;;;;6248368;23;20378;-91
2022/06/22 04:25:11;;;;;;;3.97;2.30;;;21.20;86.80;;;;;;6246145;23;20552;-91
2022/06/22 04:27:41;;;;;;;2.67;1.90;;;21.20;87.00;;;;;;6247986;23;20386;-91
2022/06/22 04:30:13;;;;;;;1.80;1.47;;;21.20;87.00;;;;;;6248185;23;20480;-93
2022/06/22 04:33:06;;;;;;;10.47;2.47;;;21.20;86.90;;;;;;6246322;23;20470;-90
2022/06/22 04:35:47;;;;;;;1.80;1.70;;;21.30;87.60;;;;;;6246071;23;20444;-92
2022/06/22 04:38:26;;;;;;;2.47;2.13;;;21.30;87.50;;;;;;6247005;23;20485;-90
2022/06/22 04:41:10;;;;;;;1.70;1.60;;;21.40;87.60;;;;;;6247308;23;20441;-91
2022/06/22 04:43:37;;;;;;;2.43;2.23;;;21.40;86.50;;;;;;6249435;23;20426;-93
2022/06/22 04:46:07;;;;;;;3.40;1.60;;;21.40;86.60;;;;;;6248398;23;20438;-92
2022/06/22 04:48:47;;;;;;;2.27;1.50;;;21.50;86.70;;;;;;6275126;22;20405;-91
2022/06/22 04:51:21;;;;;;;2.40;1.93;;;21.50;86.50;;;;;;6281606;22;20891;-92
2022/06/22 04:53:53;;;;;;;2.20;1.90;;;21.50;86.50;;;;;;6255440;22;20374;-92
2022/06/22 04:56:27;;;;;;;1.87;1.60;;;21.60;86.60;;;;;;6254729;22;20800;-91
2022/06/22 04:58:54;;;;;;;3.40;2.17;;;21.60;87.00;;;;;;6254667;22;20374;-90
2022/06/22 05:01:49;;;;;;;2.50;2.07;;;21.60;87.60;;;;;;6254733;22;20402;-90
2022/06/22 05:04:28;;;;;;;3.00;2.43;;;21.60;87.80;;;;;;6252240;22;20394;-91
2022/06/22 05:07:16;;;;;;;1.83;1.73;;;21.60;87.60;;;;;;6254474;22;20436;-92
2022/06/22 05:09:42;;;;;;;3.27;2.50;;;21.60;88.30;;;;;;6253478;22;20527;-93
2022/06/22 05:12:18;;;;;;;2.57;2.37;;;21.70;88.50;;;;;;6254382;22;20401;-90
2022/06/22 05:14:44;;;;;;;2.83;2.03;;;21.70;88.90;;;;;;6281058;22;20578;-91
2022/06/22 05:17:30;;;;;;;2.73;1.80;;;21.70;87.80;;;;;;6280090;22;20390;-92
2022/06/22 05:20:32;;;;;;;1.60;1.50;;;21.80;88.00;;;;;;6255324;22;20401;-90
2022/06/22 05:23:01;;;;;;;2.17;1.97;;;21.80;87.40;;;;;;6257495;22;20415;-91
2022/06/22 05:25:28;;;;;;;1.47;1.37;;;21.90;86.50;;;;;;6263973;22;20429;-90
2022/06/22 05:28:16;;;;;;;1.90;1.57;;;22.00;86.60;;;;;;6279866;22;20392;-90
2022/06/22 05:30:54;;;;;;;3.33;1.57;;;22.00;86.40;;;;;;6278696;22;20463;-91
2022/06/22 05:33:22;;;;;;;1.70;1.50;;;22.10;85.70;;;;;;6251330;22;20405;-90
2022/06/22 05:35:58;;;;;;;1.93;1.40;;;22.20;85.80;;;;;;6250352;22;20477;-91
2022/06/22 05:38:25;;;;;;;1.87;1.77;;;22.20;85.40;;;;;;6252999;22;20405;-90
2022/06/22 05:40:53;;;;;;;1.63;1.53;;;22.30;83.30;;;;;;6253385;22;20386;-92
2022/06/22 05:43:19;;;;;;;1.60;1.50;;;22.30;82.90;;;;;;6252017;22;20571;-91
2022/06/22 05:45:54;;;;;;;2.70;1.60;;;22.30;82.30;;;;;;6253298;22;20468;-91
2022/06/22 05:48:25;;;;;;;1.10;1.00;;;22.30;82.40;;;;;;6256645;22;20483;-90
2022/06/22 05:51:02;;;;;;;1.43;1.33;;;22.30;82.40;;;;;;6249136;22;20484;-91
2022/06/22 05:53:43;;;;;;;1.43;1.33;;;22.40;82.60;;;;;;6248914;22;20425;-91
2022/06/22 05:56:17;;;;;;;1.20;1.10;;;22.40;82.90;;;;;;6252517;22;20419;-92
2022/06/22 05:59:08;;;;;;;6.27;1.40;;;22.50;82.40;;;;;;6258796;22;20389;-91
2022/06/22 06:01:41;;;;;;;4.63;1.50;;;22.60;82.10;;;;;;6246838;22;20444;-93
2022/06/22 06:04:29;;;;;;;1.53;1.43;;;22.60;81.80;;;;;;6272413;22;20436;-91
2022/06/22 06:07:00;;;;;;;2.10;1.80;;;22.60;81.40;;;;;;6244404;22;21024;-91
2022/06/22 06:09:28;;;;;;;1.40;1.30;;;22.60;81.60;;;;;;6244796;22;20370;-91
2022/06/22 06:12:05;;;;;;;1.40;1.30;;;22.60;81.20;;;;;;6249188;22;20420;-92
2022/06/22 06:14:34;;;;;;;1.40;1.30;;;22.70;80.90;;;;;;6249255;22;20389;-92
2022/06/22 06:17:23;;;;;;;1.83;1.73;;;22.70;81.10;;;;;;6247997;22;20500;-93
2022/06/22 06:19:52;;;;;;;1.60;1.30;;;22.70;81.00;;;;;;6236918;22;20396;-92
2022/06/22 06:22:18;;;;;;;1.73;1.63;;;22.70;80.40;;;;;;6248780;22;20437;-92
2022/06/22 06:27:41;;;;;;;1.40;1.30;;;22.70;80.80;;;;;;6282316;22;20413;-91
2022/06/22 06:30:29;;;;;;;1.40;1.30;;;22.70;80.50;;;;;;6249423;22;20415;-91
2022/06/22 06:33:34;;;;;;;2.80;1.60;;;22.70;80.00;;;;;;6251076;22;20493;-90
2022/06/22 06:36:15;;;;;;;1.80;1.23;;;22.70;79.90;;;;;;6251331;22;20941;-90
2022/06/22 06:38:43;;;;;;;1.37;1.20;;;22.70;79.80;;;;;;6251239;22;20369;-92
2022/06/22 06:41:13;;;;;;;2.00;1.53;;;22.70;80.10;;;;;;6251884;22;20421;-89
2022/06/22 06:43:45;;;;;;;1.23;1.07;;;22.70;79.90;;;;;;6253605;22;20473;-90
2022/06/22 06:46:30;;;;;;;0.97;0.93;;;22.80;80.10;;;;;;6255880;22;20437;-94
2022/06/22 06:49:05;;;;;;;1.60;1.30;;;22.90;80.50;;;;;;6249436;22;20756;-91
2022/06/22 06:51:33;;;;;;;1.33;1.23;;;23.00;79.30;;;;;;6249944;22;20425;-91
2022/06/22 06:54:16;;;;;;;1.00;1.00;;;23.00;78.80;;;;;;6250051;22;20381;-90
2022/06/22 06:56:49;;;;;;;1.00;1.00;;;23.10;78.70;;;;;;6274985;22;20390;-91
2022/06/22 06:59:20;;;;;;;1.47;1.37;;;23.10;78.30;;;;;;6249201;22;20411;-91
2022/06/22 07:01:46;;;;;;;1.30;1.20;;;23.20;78.30;;;;;;6249705;22;20456;-92
2022/06/22 07:04:28;;;;;;;1.17;1.13;;;23.20;77.70;;;;;;6250349;22;20375;-92
2022/06/22 07:07:01;;;;;;;1.30;1.20;;;23.30;78.10;;;;;;6252021;22;20496;-92
2022/06/22 07:09:31;;;;;;;1.20;1.10;;;23.30;77.90;;;;;;6253090;22;20408;-90
2022/06/22 07:12:29;;;;;;;4.87;1.30;;;23.40;78.40;;;;;;6288534;22;20386;-90
2022/06/22 07:14:58;;;;;;;1.47;1.37;;;23.50;77.90;;;;;;6266627;22;20397;-91
2022/06/22 07:17:25;;;;;;;1.57;1.43;;;23.60;77.40;;;;;;6246128;22;20726;-92
2022/06/22 07:19:59;;;;;;;7.63;1.53;;;23.60;77.00;;;;;;6246509;22;20383;-93
2022/06/22 07:22:38;;;;;;;1.27;1.17;;;23.70;76.90;;;;;;6246997;22;20890;-91
2022/06/22 07:25:13;;;;;;;1.23;1.13;;;23.80;76.90;;;;;;6250146;22;20453;-91
2022/06/22 07:27:57;;;;;;;1.33;1.17;;;23.90;77.40;;;;;;6249070;22;20496;-91
2022/06/22 07:30:37;;;;;;;1.30;1.20;;;24.00;77.70;;;;;;6253055;22;20421;-90
2022/06/22 07:33:19;;;;;;;2.00;1.20;;;24.00;76.10;;;;;;6253595;22;20411;-91
2022/06/22 07:36:03;;;;;;;1.30;1.20;;;24.00;75.60;;;;;;6252322;22;20477;-92
2022/06/22 07:38:50;;;;;;;1.43;1.13;;;24.10;76.20;;;;;;6252616;22;20421;-93
2022/06/22 07:41:18;;;;;;;1.20;1.07;;;24.10;75.00;;;;;;6258290;22;20402;-94
2022/06/22 07:43:50;;;;;;;1.30;1.20;;;24.20;74.80;;;;;;6260765;22;20391;-91
2022/06/22 07:46:39;;;;;;;1.00;1.00;;;24.20;74.10;;;;;;6275055;22;20521;-94
2022/06/22 07:49:27;;;;;;;1.40;1.30;;;24.20;74.50;;;;;;6205748;22;20454;-93
2022/06/22 07:51:56;;;;;;;5.20;1.60;;;24.30;74.60;;;;;;6250798;22;20485;-91
2022/06/22 07:54:32;;;;;;;1.47;1.23;;;24.30;73.80;;;;;;6249526;22;20757;-91
2022/06/22 07:57:14;;;;;;;1.43;1.33;;;24.40;73.60;;;;;;6250334;22;20398;-91
2022/06/22 07:59:52;;;;;;;1.60;1.50;;;24.40;73.70;;;;;;6277384;22;20381;-94
2022/06/22 08:02:21;;;;;;;2.10;1.40;;;24.40;75.10;;;;;;6250219;22;20542;-93
2022/06/22 08:04:53;;;;;;;1.10;1.10;;;24.40;75.00;;;;;;6251329;22;20428;-93
2022/06/22 08:07:26;;;;;;;1.60;1.30;;;24.50;75.40;;;;;;6261679;22;20921;-93
2022/06/22 08:10:03;;;;;;;1.93;1.27;;;24.60;75.90;;;;;;6251031;22;20388;-91
2022/06/22 08:12:36;;;;;;;1.27;1.17;;;24.60;75.30;;;;;;6248763;22;20411;-91
2022/06/22 08:15:06;;;;;;;0.80;0.80;;;24.60;74.60;;;;;;6248926;22;20396;-92
2022/06/22 08:17:44;;;;;;;1.57;1.47;;;24.70;73.80;;;;;;6250205;22;20797;-93
2022/06/22 08:20:15;;;;;;;1.20;1.10;;;24.70;73.80;;;;;;6249431;22;20385;-92
2022/06/22 08:22:46;;;;;;;1.23;1.13;;;24.70;74.50;;;;;;6257432;22;20402;-91
2022/06/22 08:25:14;;;;;;;1.30;1.20;;;24.80;74.00;;;;;;6248016;22;20447;-93
2022/06/22 08:27:42;;;;;;;1.40;1.30;;;24.80;74.50;;;;;;6248151;22;20459;-93
2022/06/22 08:30:09;;;;;;;2.90;1.10;;;24.90;76.10;;;;;;6246706;22;20397;-94
2022/06/22 08:32:49;;;;;;;1.70;1.50;;;24.90;72.80;;;;;;6247706;22;20400;-93
2022/06/22 08:35:22;;;;;;;2.30;1.33;;;25.00;73.50;;;;;;6247942;22;20404;-90
2022/06/22 08:38:10;;;;;;;1.70;1.60;;;25.00;72.70;;;;;;6247426;22;20405;-91
2022/06/22 08:41:06;;;;;;;2.17;1.33;;;25.00;72.50;;;;;;6248391;22;21013;-90
2022/06/22 08:44:10;;;;;;;1.30;1.20;;;25.10;72.40;;;;;;6246051;22;20392;-91
2022/06/22 08:46:51;;;;;;;1.27;1.20;;;25.20;74.00;;;;;;6226288;22;20925;-92
2022/06/22 08:49:38;;;;;;;1.50;1.40;;;25.30;75.10;;;;;;6247341;22;20388;-92
2022/06/22 08:52:22;;;;;;;2.50;1.20;;;25.30;71.90;;;;;;6247294;22;20409;-92
2022/06/22 08:55:05;;;;;;;1.57;1.47;;;25.30;73.00;;;;;;6249799;22;20401;-92
2022/06/22 08:57:55;;;;;;;1.63;1.53;;;25.40;71.30;;;;;;6248137;22;20413;-91
2022/06/22 09:00:34;;;;;;;1.30;1.20;;;25.50;71.30;;;;;;6247576;22;20408;-92
2022/06/22 09:03:35;;;;;;;2.70;1.27;;;25.60;72.20;;;;;;6246195;22;20420;-92
2022/06/22 09:06:10;;;;;;;1.40;1.30;;;25.60;73.00;;;;;;6159393;23;20479;-92
2022/06/22 09:09:07;;;;;;;2.10;1.30;;;25.70;72.00;;;;;;6267411;22;20384;-92
2022/06/22 09:11:40;;;;;;;1.43;1.33;;;25.80;72.10;;;;;;6248901;22;20429;-92
2022/06/22 09:14:24;;;;;;;1.93;1.60;;;25.90;71.60;;;;;;6248354;22;20437;-93
2022/06/22 09:17:14;;;;;;;1.53;1.20;;;25.90;71.60;;;;;;6249620;22;20417;-92
2022/06/22 09:20:03;;;;;;;1.17;1.07;;;26.00;71.00;;;;;;6276953;22;20397;-90
2022/06/22 09:22:58;;;;;;;1.37;1.27;;;26.00;74.60;;;;;;6256986;22;20398;-90
2022/06/22 09:25:37;;;;;;;2.60;1.47;;;26.00;72.40;;;;;;6245761;22;20882;-91
2022/06/22 09:28:19;;;;;;;3.57;1.50;;;26.10;75.20;;;;;;6244981;22;20944;-91
2022/06/22 09:31:08;;;;;;;1.20;1.20;;;26.20;77.30;;;;;;6249461;22;20628;-90
2022/06/22 09:34:11;;;;;;;1.23;1.13;;;26.20;73.30;;;;;;6255978;22;20437;-91
2022/06/22 09:37:18;;;;;;;1.23;1.13;;;26.20;71.50;;;;;;6246822;22;20890;-91
2022/06/22 09:40:05;;;;;;;1.00;1.00;;;26.30;74.70;;;;;;6248287;22;20409;-91
2022/06/22 09:42:49;;;;;;;1.60;1.10;;;26.30;70.40;;;;;;6247779;22;20404;-93
2022/06/22 09:45:33;;;;;;;1.03;1.03;;;26.40;70.60;;;;;;6250650;22;20451;-91
2022/06/22 09:48:37;;;;;;;1.90;1.10;;;26.50;70.60;;;;;;6257639;22;20444;-91
2022/06/22 09:51:24;;;;;;;0.90;0.80;;;26.60;70.20;;;;;;6157839;23;20462;-91
2022/06/22 09:57:27;;;;;;;1.43;1.30;;;26.70;71.00;;;;;;6270784;22;20733;-92
2022/06/22 10:00:08;;;;;;;2.23;1.23;;;26.80;70.50;;;;;;6252637;22;20407;-93
2022/06/22 10:02:52;;;;;;;1.37;1.27;;;26.80;71.30;;;;;;6268408;22;20996;-89
2022/06/22 10:05:36;;;;;;;1.67;1.27;;;26.90;72.20;;;;;;6256016;22;20445;-90
2022/06/22 10:08:37;;;;;;;1.20;1.10;;;26.90;69.90;;;;;;6250767;22;20437;-92
2022/06/22 10:11:18;;;;;;;1.53;1.43;;;26.90;70.40;;;;;;6251082;22;20437;-93
2022/06/22 10:14:12;;;;;;;1.43;1.40;;;27.00;71.20;;;;;;6251439;22;20409;-90
2022/06/22 10:17:01;;;;;;;1.40;1.30;;;27.00;71.60;;;;;;6250440;22;20547;-92
2022/06/22 10:19:55;;;;;;;1.10;1.00;;;27.00;73.30;;;;;;6254138;22;20396;-93
2022/06/22 10:22:45;;;;;;;1.00;1.00;;;27.10;72.40;;;;;;6248549;22;20419;-89
2022/06/22 10:25:14;;;;;;;2.03;1.17;;;27.10;71.20;;;;;;6244991;22;20449;-90
2022/06/22 10:27:45;;;;;;;1.20;1.10;;;27.10;72.20;;;;;;6246215;22;20480;-91
2022/06/22 10:30:42;;;;;;;1.30;1.20;;;27.20;72.00;;;;;;6248680;22;20439;-92
2022/06/22 10:33:24;;;;;;;1.60;1.50;;;27.20;74.30;;;;;;6254275;22;20402;-89
2022/06/22 10:36:12;;;;;;;1.40;1.30;;;27.20;72.60;;;;;;6246396;22;20405;-90
2022/06/22 10:38:49;;;;;;;1.13;1.13;;;27.20;73.00;;;;;;6245629;22;20652;-92
2022/06/22 10:47:45;;;;;;;1.20;1.10;;;27.20;76.80;;;;;;6271529;22;20435;-93
2022/06/22 10:50:52;;;;;;;1.33;1.23;;;27.20;73.50;;;;;;6260192;22;20402;-92
2022/06/22 10:53:27;;;;;;;4.40;1.30;;;27.30;72.80;;;;;;6241822;22;20402;-90
2022/06/22 10:55:58;;;;;;;1.23;1.13;;;27.30;69.90;;;;;;6243284;22;20506;-91
2022/06/22 10:58:40;;;;;;;1.43;1.33;;;27.30;69.40;;;;;;6244952;22;20511;-91
2022/06/22 11:01:44;;;;;;;1.73;1.63;;;27.30;67.70;;;;;;6247452;22;20401;-89
2022/06/22 11:04:25;;;;;;;2.30;1.40;;;27.40;68.50;;;;;;6248426;22;20390;-90
2022/06/22 11:06:58;;;;;;;1.20;1.20;;;27.40;67.80;;;;;;6245164;22;20413;-90
2022/06/22 11:09:39;;;;;;;1.10;1.10;;;27.50;68.10;;;;;;6246343;22;20381;-90
2022/06/22 11:12:14;;;;;;;1.30;1.20;;;27.50;67.30;;;;;;6273821;22;20394;-90
2022/06/22 11:15:11;;;;;;;1.40;1.30;;;27.50;67.90;;;;;;6253117;22;20405;-90
2022/06/22 11:17:56;;;;;;;2.13;1.50;;;27.50;67.30;;;;;;6279612;22;20422;-90
2022/06/22 11:20:24;;;;;;;1.40;1.30;;;27.60;68.00;;;;;;6253611;22;20399;-89
2022/06/22 11:22:54;;;;;;;1.33;1.23;;;27.60;69.00;;;;;;6250571;22;20738;-89
2022/06/22 11:32:26;;;;;;;1.07;1.07;;;27.70;74.50;;;;;;6278539;22;20428;-93
2022/06/22 11:35:17;;;;;;;2.20;1.60;;;27.80;73.00;;;;;;6210666;22;20395;-92
2022/06/22 11:38:06;;;;;;;2.13;1.40;;;27.80;72.70;;;;;;6246949;22;20816;-90
2022/06/22 11:40:51;;;;;;;1.40;1.30;;;27.80;73.50;;;;;;6250398;22;20821;-92
2022/06/22 11:43:34;;;;;;;1.17;1.17;;;27.80;70.80;;;;;;6245865;22;20504;-90
2022/06/22 11:46:38;;;;;;;1.90;1.80;;;27.80;68.80;;;;;;6248846;22;20455;-90
2022/06/22 11:49:28;;;;;;;1.27;1.17;;;27.90;69.80;;;;;;6223626;22;20476;-93
2022/06/22 11:52:31;;;;;;;1.10;1.10;;;28.00;69.30;;;;;;6248088;22;20418;-92
2022/06/22 11:55:18;;;;;;;1.40;1.30;;;28.00;72.20;;;;;;6245092;22;20727;-91
2022/06/22 11:58:08;;;;;;;1.33;1.23;;;27.90;75.70;;;;;;6247199;22;20488;-90
2022/06/22 12:00:56;;;;;;;1.33;1.23;;;27.90;74.50;;;;;;6275112;22;20678;-90
2022/06/22 12:03:40;;;;;;;1.70;1.60;;;27.90;71.40;;;;;;6252665;22;20406;-90
2022/06/22 12:06:30;;;;;;;2.50;1.60;;;27.90;75.50;;;;;;6244520;22;20459;-90
2022/06/22 12:09:17;;;;;;;2.17;1.60;;;27.90;73.10;;;;;;6242247;22;21024;-92
2022/06/22 12:12:08;;;;;;;2.67;1.33;;;27.90;73.90;;;;;;6245407;22;20452;-92
2022/06/22 12:17:38;;;;;;;1.27;1.07;;;28.00;68.70;;;;;;6276275;22;20425;-91
2022/06/22 12:20:14;;;;;;;2.10;1.30;;;28.10;71.10;;;;;;6248267;22;20402;-90
2022/06/22 12:22:43;;;;;;;1.57;1.47;;;28.10;72.90;;;;;;6244792;22;20405;-91
2022/06/22 12:25:27;;;;;;;1.50;1.13;;;28.10;69.40;;;;;;6248034;22;20437;-90
2022/06/22 12:28:02;;;;;;;1.60;1.50;;;28.10;73.00;;;;;;6245795;22;20402;-90
2022/06/22 12:30:49;;;;;;;10.20;1.87;;;28.10;72.60;;;;;;6253332;22;20397;-90
2022/06/22 12:33:22;;;;;;;1.80;1.67;;;28.20;69.30;;;;;;6246199;22;20405;-93
2022/06/22 12:35:57;;;;;;;1.50;1.30;;;28.20;70.90;;;;;;6247028;22;20390;-92
2022/06/22 12:38:40;;;;;;;1.53;1.43;;;28.30;68.60;;;;;;6245851;22;20423;-93
2022/06/22 12:41:21;;;;;;;1.93;1.80;;;28.30;68.70;;;;;;6248374;22;20419;-93
2022/06/22 12:44:12;;;;;;;1.67;1.30;;;28.30;70.20;;;;;;6255493;22;20387;-92
2022/06/22 12:46:50;;;;;;;1.90;1.33;;;28.30;71.00;;;;;;6248100;22;20452;-92
2022/06/22 12:49:36;;;;;;;1.50;1.40;;;28.30;72.60;;;;;;6248305;22;20443;-91
2022/06/22 12:52:29;;;;;;;2.17;1.50;;;28.30;74.80;;;;;;6203196;22;20875;-93
2022/06/22 12:55:27;;;;;;;1.37;1.27;;;28.30;76.40;;;;;;6252084;22;20410;-89
2022/06/22 12:58:22;;;;;;;1.50;1.40;;;28.30;75.30;;;;;;6254259;22;20399;-90
2022/06/22 13:00:50;;;;;;;1.50;1.40;;;28.30;69.30;;;;;;6248845;22;21015;-89
2022/06/22 13:03:20;;;;;;;1.73;1.63;;;28.40;69.20;;;;;;6248411;22;20409;-89
2022/06/22 13:05:47;;;;;;;1.60;1.50;;;28.40;71.50;;;;;;6251011;22;20491;-89
2022/06/22 13:08:20;;;;;;;1.57;1.47;;;28.50;69.70;;;;;;6287720;22;20416;-90
2022/06/22 13:10:49;;;;;;;1.53;1.43;;;28.50;73.70;;;;;;6251826;22;20390;-90
2022/06/22 13:13:59;;;;;;;1.40;1.30;;;28.50;69.80;;;;;;6251963;22;20422;-89
2022/06/22 13:16:34;;;;;;;1.63;1.53;;;28.60;69.80;;;;;;6158322;23;20435;-90
2022/06/22 13:19:18;;;;;;;1.40;1.30;;;28.60;71.50;;;;;;6182522;23;20410;-89
2022/06/22 13:21:44;;;;;;;1.83;1.40;;;28.60;72.70;;;;;;6243907;22;20973;-89
2022/06/22 13:24:25;;;;;;;3.53;1.60;;;28.60;72.80;;;;;;6274589;22;20460;-90
2022/06/22 13:26:59;;;;;;;1.40;1.30;;;28.60;75.00;;;;;;6246888;22;20272;-93
2022/06/22 13:29:46;;;;;;;1.87;1.77;;;28.60;75.00;;;;;;6247599;22;20396;-92
2022/06/22 13:32:13;;;;;;;1.47;1.37;;;28.60;75.40;;;;;;6249331;22;20471;-90
2022/06/22 13:34:51;;;;;;;2.30;1.57;;;28.60;76.10;;;;;;6278984;22;20388;-90
2022/06/22 13:37:33;;;;;;;1.70;1.60;;;28.60;75.40;;;;;;6258645;22;20387;-92
2022/06/22 13:40:27;;;;;;;5.57;1.57;;;28.50;77.50;;;;;;6252916;22;20492;-90
2022/06/22 13:43:05;;;;;;;1.30;1.30;;;28.50;76.30;;;;;;6276427;22;20398;-93
2022/06/22 13:45:41;;;;;;;1.43;1.33;;;28.60;76.10;;;;;;6249413;22;20497;-92
2022/06/22 13:48:21;;;;;;;2.40;1.20;;;28.60;74.50;;;;;;6248968;22;20449;-90
2022/06/22 13:51:20;;;;;;;1.23;1.20;;;28.70;74.20;;;;;;6249371;22;20759;-93
2022/06/22 13:54:13;;;;;;;2.93;1.97;;;28.70;75.70;;;;;;6252286;22;20929;-93
2022/06/22 13:56:58;;;;;;;1.70;1.50;;;28.70;72.80;;;;;;6248413;22;20422;-90
2022/06/22 13:59:38;;;;;;;1.57;1.30;;;28.70;73.60;;;;;;6249436;22;20417;-93
2022/06/22 14:02:27;;;;;;;2.00;1.70;;;28.70;75.70;;;;;;6248622;22;20456;-90
2022/06/22 14:05:00;;;;;;;1.40;1.30;;;28.70;72.00;;;;;;6269321;22;20427;-92
2022/06/22 14:07:51;;;;;;;1.77;1.40;;;28.70;75.70;;;;;;6245561;22;20689;-93
2022/06/22 14:10:35;;;;;;;1.50;1.40;;;28.70;74.80;;;;;;6251249;22;20400;-93
2022/06/22 14:13:29;;;;;;;2.53;1.93;;;28.80;72.60;;;;;;6241920;22;20429;-91
2022/06/22 14:16:16;;;;;;;1.80;1.70;;;28.90;70.50;;;;;;6269524;22;20699;-90
2022/06/22 14:19:10;;;;;;;2.20;1.70;;;29.00;70.00;;;;;;6242194;22;20390;-93
2022/06/22 14:21:55;;;;;;;2.50;1.67;;;29.00;69.50;;;;;;6245080;22;20556;-93